sensor_id;sensor_type;location;lat;lon;timestamp;temperature;humidity
74792;SHT30;63319;46.046;17.802;2023-11-18T00:02:24;5.97;63.10
74792;SHT30;63319;46.046;17.802;2023-11-18T00:05:30;6.08;62.33
74792;SHT30;63319;46.046;17.802;2023-11-18T00:08:34;5.89;62.95
74792;SHT30;63319;46.046;17.802;2023-11-18T00:11:37;5.87;62.69
74792;SHT30;63319;46.046;17.802;2023-11-18T00:14:41;5.77;63.71
74792;SHT30;63319;46.046;17.802;2023-11-18T00:17:45;5.95;63.79
74792;SHT30;63319;46.046;17.802;2023-11-18T00:20:48;5.89;62.95
74792;SHT30;63319;46.046;17.802;2023-11-18T00:23:53;5.89;63.16
74792;SHT30;63319;46.046;17.802;2023-11-18T00:26:59;5.86;63.44
74792;SHT30;63319;46.046;17.802;2023-11-18T00:30:06;5.75;64.35
74792;SHT30;63319;46.046;17.802;2023-11-18T00:33:11;5.69;64.71
74792;SHT30;63319;46.046;17.802;2023-11-18T00:36:14;5.77;63.30
74792;SHT30;63319;46.046;17.802;2023-11-18T00:39:17;5.62;64.54
74792;SHT30;63319;46.046;17.802;2023-11-18T00:42:22;5.59;65.07
74792;SHT30;63319;46.046;17.802;2023-11-18T00:45:25;5.56;65.60
74792;SHT30;63319;46.046;17.802;2023-11-18T00:48:30;5.53;66.85
74792;SHT30;63319;46.046;17.802;2023-11-18T00:51:33;5.49;65.49
74792;SHT30;63319;46.046;17.802;2023-11-18T00:54:36;5.66;64.50
74792;SHT30;63319;46.046;17.802;2023-11-18T00:57:39;5.73;64.16
74792;SHT30;63319;46.046;17.802;2023-11-18T01:00:43;5.80;63.90
74792;SHT30;63319;46.046;17.802;2023-11-18T01:03:47;5.67;64.62
74792;SHT30;63319;46.046;17.802;2023-11-18T01:06:50;5.69;64.81
74792;SHT30;63319;46.046;17.802;2023-11-18T01:09:54;5.69;64.38
74792;SHT30;63319;46.046;17.802;2023-11-18T01:12:57;5.74;63.73
74792;SHT30;63319;46.046;17.802;2023-11-18T01:16:00;5.67;64.32
74792;SHT30;63319;46.046;17.802;2023-11-18T01:19:05;5.74;64.42
74792;SHT30;63319;46.046;17.802;2023-11-18T01:22:11;5.45;65.35
74792;SHT30;63319;46.046;17.802;2023-11-18T01:25:15;5.46;65.96
74792;SHT30;63319;46.046;17.802;2023-11-18T01:28:21;5.56;65.19
74792;SHT30;63319;46.046;17.802;2023-11-18T01:31:25;5.60;65.09
74792;SHT30;63319;46.046;17.802;2023-11-18T01:34:35;5.53;65.53
74792;SHT30;63319;46.046;17.802;2023-11-18T01:37:41;5.60;65.15
74792;SHT30;63319;46.046;17.802;2023-11-18T01:40:44;5.66;65.52
74792;SHT30;63319;46.046;17.802;2023-11-18T01:43:47;5.67;64.79
74792;SHT30;63319;46.046;17.802;2023-11-18T01:46:51;5.45;65.69
74792;SHT30;63319;46.046;17.802;2023-11-18T01:49:54;5.59;65.26
74792;SHT30;63319;46.046;17.802;2023-11-18T01:52:59;5.75;64.76
74792;SHT30;63319;46.046;17.802;2023-11-18T01:56:04;5.54;66.16
74792;SHT30;63319;46.046;17.802;2023-11-18T01:59:08;5.53;65.25
74792;SHT30;63319;46.046;17.802;2023-11-18T02:02:13;5.54;65.28
74792;SHT30;63319;46.046;17.802;2023-11-18T02:05:16;5.60;65.46
74792;SHT30;63319;46.046;17.802;2023-11-18T02:08:21;5.47;65.50
74792;SHT30;63319;46.046;17.802;2023-11-18T02:11:30;5.42;65.80
74792;SHT30;63319;46.046;17.802;2023-11-18T02:14:34;5.33;66.94
74792;SHT30;63319;46.046;17.802;2023-11-18T02:17:41;5.35;66.40
74792;SHT30;63319;46.046;17.802;2023-11-18T02:20:46;5.22;67.74
74792;SHT30;63319;46.046;17.802;2023-11-18T02:23:50;5.22;67.14
74792;SHT30;63319;46.046;17.802;2023-11-18T02:26:56;5.14;67.43
74792;SHT30;63319;46.046;17.802;2023-11-18T02:29:59;4.89;68.40
74792;SHT30;63319;46.046;17.802;2023-11-18T02:33:19;5.12;67.50
74792;SHT30;63319;46.046;17.802;2023-11-18T02:36:35;5.11;67.54
74792;SHT30;63319;46.046;17.802;2023-11-18T02:39:43;5.16;67.72
74792;SHT30;63319;46.046;17.802;2023-11-18T02:42:47;4.99;68.14
74792;SHT30;63319;46.046;17.802;2023-11-18T02:45:52;5.04;68.47
74792;SHT30;63319;46.046;17.802;2023-11-18T02:48:57;5.05;68.78
74792;SHT30;63319;46.046;17.802;2023-11-18T02:52:00;4.91;68.38
74792;SHT30;63319;46.046;17.802;2023-11-18T02:55:07;4.85;68.53
74792;SHT30;63319;46.046;17.802;2023-11-18T02:58:14;4.91;69.56
74792;SHT30;63319;46.046;17.802;2023-11-18T03:01:17;4.95;69.00
74792;SHT30;63319;46.046;17.802;2023-11-18T03:04:22;5.02;68.45
74792;SHT30;63319;46.046;17.802;2023-11-18T03:07:26;4.84;69.10
74792;SHT30;63319;46.046;17.802;2023-11-18T03:10:29;4.92;68.95
74792;SHT30;63319;46.046;17.802;2023-11-18T03:13:37;4.73;70.04
74792;SHT30;63319;46.046;17.802;2023-11-18T03:16:40;4.87;69.01
74792;SHT30;63319;46.046;17.802;2023-11-18T03:19:44;4.64;69.94
74792;SHT30;63319;46.046;17.802;2023-11-18T03:22:47;4.68;69.44
74792;SHT30;63319;46.046;17.802;2023-11-18T03:25:50;4.56;70.17
74792;SHT30;63319;46.046;17.802;2023-11-18T03:28:54;4.46;70.53
74792;SHT30;63319;46.046;17.802;2023-11-18T03:31:57;4.58;70.84
74792;SHT30;63319;46.046;17.802;2023-11-18T03:35:05;4.40;70.38
74792;SHT30;63319;46.046;17.802;2023-11-18T03:38:12;4.42;71.39
74792;SHT30;63319;46.046;17.802;2023-11-18T03:41:15;4.26;71.35
74792;SHT30;63319;46.046;17.802;2023-11-18T03:44:19;4.10;71.89
74792;SHT30;63319;46.046;17.802;2023-11-18T03:47:22;4.08;71.62
74792;SHT30;63319;46.046;17.802;2023-11-18T03:50:26;4.16;72.28
74792;SHT30;63319;46.046;17.802;2023-11-18T03:53:30;4.16;71.62
74792;SHT30;63319;46.046;17.802;2023-11-18T03:56:34;4.30;71.21
74792;SHT30;63319;46.046;17.802;2023-11-18T03:59:41;4.30;71.60
74792;SHT30;63319;46.046;17.802;2023-11-18T04:02:44;4.15;71.36
74792;SHT30;63319;46.046;17.802;2023-11-18T04:05:49;4.10;71.82
74792;SHT30;63319;46.046;17.802;2023-11-18T04:08:52;4.29;72.64
74792;SHT30;63319;46.046;17.802;2023-11-18T04:11:55;4.35;72.50
74792;SHT30;63319;46.046;17.802;2023-11-18T04:14:59;4.26;71.01
74792;SHT30;63319;46.046;17.802;2023-11-18T04:18:02;4.25;72.43
74792;SHT30;63319;46.046;17.802;2023-11-18T04:21:07;4.32;70.42
74792;SHT30;63319;46.046;17.802;2023-11-18T04:24:11;4.20;71.21
74792;SHT30;63319;46.046;17.802;2023-11-18T04:27:14;4.22;71.88
74792;SHT30;63319;46.046;17.802;2023-11-18T04:30:17;4.25;70.68
74792;SHT30;63319;46.046;17.802;2023-11-18T04:33:20;4.03;71.35
74792;SHT30;63319;46.046;17.802;2023-11-18T04:36:23;4.06;71.41
74792;SHT30;63319;46.046;17.802;2023-11-18T04:39:26;4.13;73.79
74792;SHT30;63319;46.046;17.802;2023-11-18T04:42:31;4.06;73.03
74792;SHT30;63319;46.046;17.802;2023-11-18T04:45:34;4.25;73.33
74792;SHT30;63319;46.046;17.802;2023-11-18T04:48:37;4.19;71.29
74792;SHT30;63319;46.046;17.802;2023-11-18T04:51:44;3.98;72.10
74792;SHT30;63319;46.046;17.802;2023-11-18T04:54:47;3.84;73.87
74792;SHT30;63319;46.046;17.802;2023-11-18T04:57:50;3.73;72.75
74792;SHT30;63319;46.046;17.802;2023-11-18T05:00:54;3.71;72.50
74792;SHT30;63319;46.046;17.802;2023-11-18T05:03:57;3.66;72.55
74792;SHT30;63319;46.046;17.802;2023-11-18T05:07:00;3.63;72.93
74792;SHT30;63319;46.046;17.802;2023-11-18T05:10:04;3.73;72.32
74792;SHT30;63319;46.046;17.802;2023-11-18T05:13:07;3.66;72.56
74792;SHT30;63319;46.046;17.802;2023-11-18T05:16:11;3.43;73.13
74792;SHT30;63319;46.046;17.802;2023-11-18T05:19:15;3.81;75.08
74792;SHT30;63319;46.046;17.802;2023-11-18T05:22:20;4.23;73.44
74792;SHT30;63319;46.046;17.802;2023-11-18T05:25:26;4.22;73.24
74792;SHT30;63319;46.046;17.802;2023-11-18T05:28:29;3.84;71.97
74792;SHT30;63319;46.046;17.802;2023-11-18T05:31:32;3.53;72.74
74792;SHT30;63319;46.046;17.802;2023-11-18T05:34:36;3.47;73.03
74792;SHT30;63319;46.046;17.802;2023-11-18T05:37:39;3.41;74.49
74792;SHT30;63319;46.046;17.802;2023-11-18T05:40:45;3.39;74.21
74792;SHT30;63319;46.046;17.802;2023-11-18T05:43:59;3.27;73.51
74792;SHT30;63319;46.046;17.802;2023-11-18T05:47:02;3.27;75.28
74792;SHT30;63319;46.046;17.802;2023-11-18T05:50:06;3.22;73.83
74792;SHT30;63319;46.046;17.802;2023-11-18T05:53:09;3.13;73.89
74792;SHT30;63319;46.046;17.802;2023-11-18T05:56:13;3.29;74.14
74792;SHT30;63319;46.046;17.802;2023-11-18T05:59:17;3.27;73.89
74792;SHT30;63319;46.046;17.802;2023-11-18T06:02:20;3.40;75.94
74792;SHT30;63319;46.046;17.802;2023-11-18T06:05:24;3.68;74.34
74792;SHT30;63319;46.046;17.802;2023-11-18T06:08:29;3.75;72.43
74792;SHT30;63319;46.046;17.802;2023-11-18T06:11:35;3.73;73.33
74792;SHT30;63319;46.046;17.802;2023-11-18T06:14:38;3.91;71.58
74792;SHT30;63319;46.046;17.802;2023-11-18T06:17:44;4.18;72.67
74792;SHT30;63319;46.046;17.802;2023-11-18T06:20:47;4.25;70.03
74792;SHT30;63319;46.046;17.802;2023-11-18T06:23:50;4.32;69.64
74792;SHT30;63319;46.046;17.802;2023-11-18T06:26:54;4.43;69.92
74792;SHT30;63319;46.046;17.802;2023-11-18T06:29:57;4.47;69.26
74792;SHT30;63319;46.046;17.802;2023-11-18T06:33:00;4.47;70.56
74792;SHT30;63319;46.046;17.802;2023-11-18T06:36:06;4.73;68.23
74792;SHT30;63319;46.046;17.802;2023-11-18T06:39:10;4.78;68.78
74792;SHT30;63319;46.046;17.802;2023-11-18T06:42:15;4.80;68.39
74792;SHT30;63319;46.046;17.802;2023-11-18T06:45:19;5.05;66.64
74792;SHT30;63319;46.046;17.802;2023-11-18T06:48:24;5.19;66.34
74792;SHT30;63319;46.046;17.802;2023-11-18T06:51:29;5.40;65.43
74792;SHT30;63319;46.046;17.802;2023-11-18T06:54:34;5.52;66.12
74792;SHT30;63319;46.046;17.802;2023-11-18T06:57:37;5.70;64.30
74792;SHT30;63319;46.046;17.802;2023-11-18T07:00:41;6.00;63.55
74792;SHT30;63319;46.046;17.802;2023-11-18T07:03:45;6.17;63.22
74792;SHT30;63319;46.046;17.802;2023-11-18T07:06:51;6.31;63.38
74792;SHT30;63319;46.046;17.802;2023-11-18T07:09:54;8.28;58.00
74792;SHT30;63319;46.046;17.802;2023-11-18T07:12:58;11.09;49.28
74792;SHT30;63319;46.046;17.802;2023-11-18T07:16:02;12.53;44.44
74792;SHT30;63319;46.046;17.802;2023-11-18T07:19:07;13.61;42.24
74792;SHT30;63319;46.046;17.802;2023-11-18T07:22:10;14.28;40.22
74792;SHT30;63319;46.046;17.802;2023-11-18T07:25:14;14.86;39.48
74792;SHT30;63319;46.046;17.802;2023-11-18T07:28:17;15.51;38.44
74792;SHT30;63319;46.046;17.802;2023-11-18T07:31:20;15.85;36.56
74792;SHT30;63319;46.046;17.802;2023-11-18T07:34:23;16.73;35.26
74792;SHT30;63319;46.046;17.802;2023-11-18T07:37:28;16.64;34.93
74792;SHT30;63319;46.046;17.802;2023-11-18T07:40:35;17.00;34.18
74792;SHT30;63319;46.046;17.802;2023-11-18T07:43:38;17.00;34.96
74792;SHT30;63319;46.046;17.802;2023-11-18T07:46:44;17.33;34.98
74792;SHT30;63319;46.046;17.802;2023-11-18T07:49:47;17.76;33.48
74792;SHT30;63319;46.046;17.802;2023-11-18T07:52:51;17.77;32.49
74792;SHT30;63319;46.046;17.802;2023-11-18T07:55:54;16.95;33.73
74792;SHT30;63319;46.046;17.802;2023-11-18T07:58:58;17.97;32.65
74792;SHT30;63319;46.046;17.802;2023-11-18T08:02:01;18.34;32.59
74792;SHT30;63319;46.046;17.802;2023-11-18T08:05:09;18.99;31.22
74792;SHT30;63319;46.046;17.802;2023-11-18T08:08:16;19.30;30.58
74792;SHT30;63319;46.046;17.802;2023-11-18T08:11:19;19.14;31.15
74792;SHT30;63319;46.046;17.802;2023-11-18T08:14:23;18.52;32.71
74792;SHT30;63319;46.046;17.802;2023-11-18T08:17:26;18.97;31.82
74792;SHT30;63319;46.046;17.802;2023-11-18T08:20:29;18.22;31.56
74792;SHT30;63319;46.046;17.802;2023-11-18T08:23:33;18.60;31.26
74792;SHT30;63319;46.046;17.802;2023-11-18T08:26:36;18.58;30.62
74792;SHT30;63319;46.046;17.802;2023-11-18T08:29:39;18.97;30.71
74792;SHT30;63319;46.046;17.802;2023-11-18T08:32:43;19.71;29.07
74792;SHT30;63319;46.046;17.802;2023-11-18T08:35:46;19.08;30.41
74792;SHT30;63319;46.046;17.802;2023-11-18T08:38:50;19.28;29.77
74792;SHT30;63319;46.046;17.802;2023-11-18T08:41:53;19.54;29.20
74792;SHT30;63319;46.046;17.802;2023-11-18T08:44:57;19.44;29.33
74792;SHT30;63319;46.046;17.802;2023-11-18T08:48:04;19.17;29.89
74792;SHT30;63319;46.046;17.802;2023-11-18T08:51:11;19.69;28.98
74792;SHT30;63319;46.046;17.802;2023-11-18T08:54:16;19.71;28.67
74792;SHT30;63319;46.046;17.802;2023-11-18T08:57:25;19.83;28.68
74792;SHT30;63319;46.046;17.802;2023-11-18T09:00:31;19.36;30.17
74792;SHT30;63319;46.046;17.802;2023-11-18T09:03:49;19.72;29.64
74792;SHT30;63319;46.046;17.802;2023-11-18T09:06:56;20.71;27.82
74792;SHT30;63319;46.046;17.802;2023-11-18T09:10:03;20.39;27.86
74792;SHT30;63319;46.046;17.802;2023-11-18T09:13:06;20.12;27.49
74792;SHT30;63319;46.046;17.802;2023-11-18T09:16:09;19.45;29.23
74792;SHT30;63319;46.046;17.802;2023-11-18T09:19:12;19.39;29.41
74792;SHT30;63319;46.046;17.802;2023-11-18T09:22:15;19.51;29.32
74792;SHT30;63319;46.046;17.802;2023-11-18T09:25:21;19.90;28.39
74792;SHT30;63319;46.046;17.802;2023-11-18T09:28:26;18.90;29.78
74792;SHT30;63319;46.046;17.802;2023-11-18T09:31:31;18.17;30.84
74792;SHT30;63319;46.046;17.802;2023-11-18T09:34:36;16.91;33.23
74792;SHT30;63319;46.046;17.802;2023-11-18T09:37:42;15.26;36.11
74792;SHT30;63319;46.046;17.802;2023-11-18T09:40:47;14.37;37.94
74792;SHT30;63319;46.046;17.802;2023-11-18T09:43:51;13.70;40.41
74792;SHT30;63319;46.046;17.802;2023-11-18T09:46:57;13.51;39.73
74792;SHT30;63319;46.046;17.802;2023-11-18T09:50:10;13.14;40.73
74792;SHT30;63319;46.046;17.802;2023-11-18T09:53:14;12.72;40.87
74792;SHT30;63319;46.046;17.802;2023-11-18T10:00:03;14.13;38.83
74792;SHT30;63319;46.046;17.802;2023-11-18T10:03:25;16.36;34.21
74792;SHT30;63319;46.046;17.802;2023-11-18T10:06:29;17.73;32.67
74792;SHT30;63319;46.046;17.802;2023-11-18T10:09:37;18.08;32.23
74792;SHT30;63319;46.046;17.802;2023-11-18T10:12:43;18.75;30.48
74792;SHT30;63319;46.046;17.802;2023-11-18T10:15:54;18.55;30.02
74792;SHT30;63319;46.046;17.802;2023-11-18T10:19:02;17.93;31.82
74792;SHT30;63319;46.046;17.802;2023-11-18T10:22:28;17.73;31.88
74792;SHT30;63319;46.046;17.802;2023-11-18T10:25:32;16.36;33.65
74792;SHT30;63319;46.046;17.802;2023-11-18T10:28:37;15.61;34.51
74792;SHT30;63319;46.046;17.802;2023-11-18T10:31:40;16.09;35.35
74792;SHT30;63319;46.046;17.802;2023-11-18T10:34:48;17.90;32.42
74792;SHT30;63319;46.046;17.802;2023-11-18T10:37:54;18.48;30.14
74792;SHT30;63319;46.046;17.802;2023-11-18T10:40:59;19.11;29.93
74792;SHT30;63319;46.046;17.802;2023-11-18T10:44:07;19.17;29.57
74792;SHT30;63319;46.046;17.802;2023-11-18T10:47:11;19.25;29.31
74792;SHT30;63319;46.046;17.802;2023-11-18T10:50:17;20.57;27.98
74792;SHT30;63319;46.046;17.802;2023-11-18T10:53:22;20.36;27.69
74792;SHT30;63319;46.046;17.802;2023-11-18T10:56:27;19.83;28.46
74792;SHT30;63319;46.046;17.802;2023-11-18T10:59:31;19.68;28.53
74792;SHT30;63319;46.046;17.802;2023-11-18T11:02:34;19.25;28.72
74792;SHT30;63319;46.046;17.802;2023-11-18T11:05:42;20.06;27.86
74792;SHT30;63319;46.046;17.802;2023-11-18T11:08:46;20.82;27.18
74792;SHT30;63319;46.046;17.802;2023-11-18T11:11:54;20.44;27.20
74792;SHT30;63319;46.046;17.802;2023-11-18T11:15:02;21.27;26.09
74792;SHT30;63319;46.046;17.802;2023-11-18T11:18:12;21.49;25.94
74792;SHT30;63319;46.046;17.802;2023-11-18T11:21:26;21.00;26.35
74792;SHT30;63319;46.046;17.802;2023-11-18T11:31:31;20.71;26.62
74792;SHT30;63319;46.046;17.802;2023-11-18T11:34:35;20.61;26.23
74792;SHT30;63319;46.046;17.802;2023-11-18T11:37:40;20.72;26.89
74792;SHT30;63319;46.046;17.802;2023-11-18T11:40:45;19.94;27.83
74792;SHT30;63319;46.046;17.802;2023-11-18T11:43:50;20.24;27.93
74792;SHT30;63319;46.046;17.802;2023-11-18T11:46:53;19.90;28.14
74792;SHT30;63319;46.046;17.802;2023-11-18T11:50:07;19.35;28.80
74792;SHT30;63319;46.046;17.802;2023-11-18T11:53:21;20.31;27.41
74792;SHT30;63319;46.046;17.802;2023-11-18T11:56:45;20.36;26.93
74792;SHT30;63319;46.046;17.802;2023-11-18T12:02:56;19.20;27.59
74792;SHT30;63319;46.046;17.802;2023-11-18T12:05:59;18.07;29.90
74792;SHT30;63319;46.046;17.802;2023-11-18T12:09:15;18.73;29.80
74792;SHT30;63319;46.046;17.802;2023-11-18T12:12:24;18.99;29.07
74792;SHT30;63319;46.046;17.802;2023-11-18T12:15:50;19.20;29.97
74792;SHT30;63319;46.046;17.802;2023-11-18T12:19:29;18.73;29.10
74792;SHT30;63319;46.046;17.802;2023-11-18T12:23:04;19.00;28.75
74792;SHT30;63319;46.046;17.802;2023-11-18T12:26:37;19.36;28.98
74792;SHT30;63319;46.046;17.802;2023-11-18T12:29:43;19.68;28.51
74792;SHT30;63319;46.046;17.802;2023-11-18T12:36:21;19.17;28.70
74792;SHT30;63319;46.046;17.802;2023-11-18T12:43:00;18.97;28.49
74792;SHT30;63319;46.046;17.802;2023-11-18T12:49:44;19.21;27.77
74792;SHT30;63319;46.046;17.802;2023-11-18T12:52:47;17.47;30.18
74792;SHT30;63319;46.046;17.802;2023-11-18T12:55:52;18.37;29.27
74792;SHT30;63319;46.046;17.802;2023-11-18T12:58:55;15.99;32.73
74792;SHT30;63319;46.046;17.802;2023-11-18T13:01:59;17.47;31.40
74792;SHT30;63319;46.046;17.802;2023-11-18T13:05:07;17.53;30.62
74792;SHT30;63319;46.046;17.802;2023-11-18T13:08:13;18.07;30.22
74792;SHT30;63319;46.046;17.802;2023-11-18T13:11:18;18.28;30.20
74792;SHT30;63319;46.046;17.802;2023-11-18T13:14:27;18.73;29.77
74792;SHT30;63319;46.046;17.802;2023-11-18T13:17:31;18.31;30.47
74792;SHT30;63319;46.046;17.802;2023-11-18T13:20:34;17.86;30.19
74792;SHT30;63319;46.046;17.802;2023-11-18T13:23:40;15.64;33.93
74792;SHT30;63319;46.046;17.802;2023-11-18T13:26:44;14.17;36.54
74792;SHT30;63319;46.046;17.802;2023-11-18T13:29:48;12.66;39.80
74792;SHT30;63319;46.046;17.802;2023-11-18T13:32:56;11.75;41.49
74792;SHT30;63319;46.046;17.802;2023-11-18T13:36:00;11.63;41.37
74792;SHT30;63319;46.046;17.802;2023-11-18T13:39:04;11.20;42.66
74792;SHT30;63319;46.046;17.802;2023-11-18T13:42:20;11.01;43.05
74792;SHT30;63319;46.046;17.802;2023-11-18T13:45:24;10.72;43.81
74792;SHT30;63319;46.046;17.802;2023-11-18T13:48:40;10.48;44.23
74792;SHT30;63319;46.046;17.802;2023-11-18T13:51:44;10.34;44.96
74792;SHT30;63319;46.046;17.802;2023-11-18T13:54:47;9.96;46.50
74792;SHT30;63319;46.046;17.802;2023-11-18T13:57:53;10.08;45.52
74792;SHT30;63319;46.046;17.802;2023-11-18T14:00:57;9.95;45.92
74792;SHT30;63319;46.046;17.802;2023-11-18T14:04:00;9.71;46.79
74792;SHT30;63319;46.046;17.802;2023-11-18T14:07:07;9.81;46.77
74792;SHT30;63319;46.046;17.802;2023-11-18T14:10:12;9.51;47.24
74792;SHT30;63319;46.046;17.802;2023-11-18T14:13:16;9.52;46.69
74792;SHT30;63319;46.046;17.802;2023-11-18T14:16:21;9.62;45.18
74792;SHT30;63319;46.046;17.802;2023-11-18T14:19:29;9.37;45.80
74792;SHT30;63319;46.046;17.802;2023-11-18T14:22:32;9.24;47.54
74792;SHT30;63319;46.046;17.802;2023-11-18T14:25:35;9.30;46.85
74792;SHT30;63319;46.046;17.802;2023-11-18T14:28:39;9.03;46.78
74792;SHT30;63319;46.046;17.802;2023-11-18T14:31:42;8.92;47.75
74792;SHT30;63319;46.046;17.802;2023-11-18T14:34:46;8.87;48.21
74792;SHT30;63319;46.046;17.802;2023-11-18T14:37:52;8.90;47.69
74792;SHT30;63319;46.046;17.802;2023-11-18T14:40:55;8.73;48.53
74792;SHT30;63319;46.046;17.802;2023-11-18T14:43:59;8.61;49.53
74792;SHT30;63319;46.046;17.802;2023-11-18T14:47:03;8.59;48.65
74792;SHT30;63319;46.046;17.802;2023-11-18T14:50:09;8.64;48.53
74792;SHT30;63319;46.046;17.802;2023-11-18T14:53:20;8.31;50.98
74792;SHT30;63319;46.046;17.802;2023-11-18T14:56:24;8.33;49.49
74792;SHT30;63319;46.046;17.802;2023-11-18T14:59:27;8.45;49.14
74792;SHT30;63319;46.046;17.802;2023-11-18T15:02:30;8.06;49.14
74792;SHT30;63319;46.046;17.802;2023-11-18T15:05:33;8.07;50.59
74792;SHT30;63319;46.046;17.802;2023-11-18T15:08:37;8.10;49.72
74792;SHT30;63319;46.046;17.802;2023-11-18T15:11:47;7.82;50.44
74792;SHT30;63319;46.046;17.802;2023-11-18T15:14:52;7.87;50.53
74792;SHT30;63319;46.046;17.802;2023-11-18T15:17:56;8.11;49.55
74792;SHT30;63319;46.046;17.802;2023-11-18T15:20:59;7.75;50.25
74792;SHT30;63319;46.046;17.802;2023-11-18T15:24:02;7.67;50.75
74792;SHT30;63319;46.046;17.802;2023-11-18T15:27:06;7.72;50.60
74792;SHT30;63319;46.046;17.802;2023-11-18T15:30:10;7.58;51.02
74792;SHT30;63319;46.046;17.802;2023-11-18T15:33:13;7.67;49.97
74792;SHT30;63319;46.046;17.802;2023-11-18T15:36:18;7.32;51.75
74792;SHT30;63319;46.046;17.802;2023-11-18T15:39:21;7.44;50.77
74792;SHT30;63319;46.046;17.802;2023-11-18T15:42:26;7.58;50.58
74792;SHT30;63319;46.046;17.802;2023-11-18T15:45:31;7.32;51.63
74792;SHT30;63319;46.046;17.802;2023-11-18T15:48:35;7.28;52.04
74792;SHT30;63319;46.046;17.802;2023-11-18T15:51:38;7.14;52.89
74792;SHT30;63319;46.046;17.802;2023-11-18T15:54:43;7.05;52.95
74792;SHT30;63319;46.046;17.802;2023-11-18T15:57:47;7.10;52.40
74792;SHT30;63319;46.046;17.802;2023-11-18T16:00:56;6.96;54.19
74792;SHT30;63319;46.046;17.802;2023-11-18T16:03:59;6.79;55.77
74792;SHT30;63319;46.046;17.802;2023-11-18T16:07:03;7.04;53.98
74792;SHT30;63319;46.046;17.802;2023-11-18T16:10:06;7.00;53.77
74792;SHT30;63319;46.046;17.802;2023-11-18T16:13:09;6.79;54.78
74792;SHT30;63319;46.046;17.802;2023-11-18T16:16:12;6.62;55.08
74792;SHT30;63319;46.046;17.802;2023-11-18T16:19:15;6.70;54.33
74792;SHT30;63319;46.046;17.802;2023-11-18T16:22:19;6.75;53.97
74792;SHT30;63319;46.046;17.802;2023-11-18T16:25:24;6.25;55.92
74792;SHT30;63319;46.046;17.802;2023-11-18T16:28:30;6.41;55.79
74792;SHT30;63319;46.046;17.802;2023-11-18T16:31:33;6.35;57.67
74792;SHT30;63319;46.046;17.802;2023-11-18T16:34:38;6.39;57.75
74792;SHT30;63319;46.046;17.802;2023-11-18T16:37:42;6.59;57.06
74792;SHT30;63319;46.046;17.802;2023-11-18T16:40:45;6.52;57.71
74792;SHT30;63319;46.046;17.802;2023-11-18T16:43:48;6.57;55.51
74792;SHT30;63319;46.046;17.802;2023-11-18T16:46:52;6.53;56.24
74792;SHT30;63319;46.046;17.802;2023-11-18T16:49:55;6.28;57.08
74792;SHT30;63319;46.046;17.802;2023-11-18T16:53:05;6.33;56.75
74792;SHT30;63319;46.046;17.802;2023-11-18T16:56:09;6.25;57.91
74792;SHT30;63319;46.046;17.802;2023-11-18T16:59:12;6.31;59.20
74792;SHT30;63319;46.046;17.802;2023-11-18T17:02:17;6.48;57.80
74792;SHT30;63319;46.046;17.802;2023-11-18T17:05:26;6.35;57.73
74792;SHT30;63319;46.046;17.802;2023-11-18T17:08:31;6.39;60.92
74792;SHT30;63319;46.046;17.802;2023-11-18T17:11:34;6.28;58.01
74792;SHT30;63319;46.046;17.802;2023-11-18T17:14:37;5.98;59.88
74792;SHT30;63319;46.046;17.802;2023-11-18T17:20:45;6.11;60.47
74792;SHT30;63319;46.046;17.802;2023-11-18T17:23:49;6.10;61.21
74792;SHT30;63319;46.046;17.802;2023-11-18T17:26:53;6.28;60.18
74792;SHT30;63319;46.046;17.802;2023-11-18T17:29:57;6.26;60.17
74792;SHT30;63319;46.046;17.802;2023-11-18T17:33:00;6.11;60.25
74792;SHT30;63319;46.046;17.802;2023-11-18T17:36:04;5.87;60.58
74792;SHT30;63319;46.046;17.802;2023-11-18T17:39:07;5.74;61.00
74792;SHT30;63319;46.046;17.802;2023-11-18T17:42:14;5.59;62.07
74792;SHT30;63319;46.046;17.802;2023-11-18T17:45:18;5.67;63.79
74792;SHT30;63319;46.046;17.802;2023-11-18T17:48:21;5.81;64.70
74792;SHT30;63319;46.046;17.802;2023-11-18T17:51:25;5.67;63.33
74792;SHT30;63319;46.046;17.802;2023-11-18T17:54:32;5.95;63.01
74792;SHT30;63319;46.046;17.802;2023-11-18T17:57:36;5.71;62.09
74792;SHT30;63319;46.046;17.802;2023-11-18T18:00:40;5.56;63.35
74792;SHT30;63319;46.046;17.802;2023-11-18T18:03:43;5.53;62.60
74792;SHT30;63319;46.046;17.802;2023-11-18T18:06:47;5.90;61.74
74792;SHT30;63319;46.046;17.802;2023-11-18T18:09:50;5.95;62.30
74792;SHT30;63319;46.046;17.802;2023-11-18T18:12:54;5.93;61.25
74792;SHT30;63319;46.046;17.802;2023-11-18T18:15:57;5.86;61.65
74792;SHT30;63319;46.046;17.802;2023-11-18T18:19:00;5.74;62.11
74792;SHT30;63319;46.046;17.802;2023-11-18T18:22:04;5.95;61.11
74792;SHT30;63319;46.046;17.802;2023-11-18T18:25:08;5.77;62.33
74792;SHT30;63319;46.046;17.802;2023-11-18T18:28:13;5.59;62.83
74792;SHT30;63319;46.046;17.802;2023-11-18T18:31:16;5.84;61.51
74792;SHT30;63319;46.046;17.802;2023-11-18T18:34:20;5.97;61.30
74792;SHT30;63319;46.046;17.802;2023-11-18T18:37:23;5.78;62.35
74792;SHT30;63319;46.046;17.802;2023-11-18T18:40:29;5.69;62.68
74792;SHT30;63319;46.046;17.802;2023-11-18T18:43:34;5.46;63.60
74792;SHT30;63319;46.046;17.802;2023-11-18T18:46:38;5.38;63.81
74792;SHT30;63319;46.046;17.802;2023-11-18T18:49:41;5.22;64.56
74792;SHT30;63319;46.046;17.802;2023-11-18T18:52:45;5.40;64.10
74792;SHT30;63319;46.046;17.802;2023-11-18T18:55:48;5.56;64.59
74792;SHT30;63319;46.046;17.802;2023-11-18T18:58:52;5.56;64.31
74792;SHT30;63319;46.046;17.802;2023-11-18T19:01:57;5.54;62.99
74792;SHT30;63319;46.046;17.802;2023-11-18T19:05:00;5.49;63.04
74792;SHT30;63319;46.046;17.802;2023-11-18T19:08:04;5.59;62.95
74792;SHT30;63319;46.046;17.802;2023-11-18T19:11:08;5.50;64.14
74792;SHT30;63319;46.046;17.802;2023-11-18T19:14:12;5.63;63.05
74792;SHT30;63319;46.046;17.802;2023-11-18T19:17:16;5.43;63.60
74792;SHT30;63319;46.046;17.802;2023-11-18T19:20:20;5.52;64.03
74792;SHT30;63319;46.046;17.802;2023-11-18T19:23:24;5.46;62.27
74792;SHT30;63319;46.046;17.802;2023-11-18T19:26:28;5.46;63.38
74792;SHT30;63319;46.046;17.802;2023-11-18T19:29:31;5.45;64.78
74792;SHT30;63319;46.046;17.802;2023-11-18T19:32:35;5.45;64.00
74792;SHT30;63319;46.046;17.802;2023-11-18T19:35:39;5.57;65.83
74792;SHT30;63319;46.046;17.802;2023-11-18T19:38:42;5.86;65.20
74792;SHT30;63319;46.046;17.802;2023-11-18T19:41:46;5.36;64.14
74792;SHT30;63319;46.046;17.802;2023-11-18T19:44:49;5.11;67.70
74792;SHT30;63319;46.046;17.802;2023-11-18T19:47:52;4.78;67.37
74792;SHT30;63319;46.046;17.802;2023-11-18T19:50:56;4.45;67.38